Time;durP1;ratioP1;P1;durP2;ratioP2;P2;SDS_P1;SDS_P2;PMS_P1;PMS_P2;Temp;Humidity;BMP_temperature;BMP_pressure;BME280_temperature;BME280_humidity;BME280_pressure;Samples;Min_cycle;Max_cycle;Signal;HPM_P1;HPM_P2
2023/02/26 00:00:14;;;;;;;9.30;2.80;;;;;;;-0.40;100.00;99703.81;219205;1269;138907;-89
2023/02/26 00:05:15;;;;;;;6.80;2.30;;;;;;;-0.42;100.00;99707.70;221515;1269;139114;-89
2023/02/26 00:10:16;;;;;;;5.80;1.90;;;;;;;-0.46;100.00;99712.34;219263;1271;138602;-89
2023/02/26 00:15:17;;;;;;;7.80;2.00;;;;;;;-0.49;100.00;99723.80;219300;1267;139351;-89
2023/02/26 00:20:18;;;;;;;4.30;1.70;;;;;;;-0.53;100.00;99726.91;219681;1267;138889;-90
2023/02/26 00:25:18;;;;;;;6.30;2.00;;;;;;;-0.57;100.00;99738.40;219350;1272;139170;-89
2023/02/26 00:30:19;;;;;;;7.10;2.30;;;;;;;-0.63;100.00;99744.95;218828;1269;139282;-90
2023/02/26 00:35:20;;;;;;;7.40;2.70;;;;;;;-0.68;100.00;99753.83;219408;1272;139328;-89
2023/02/26 00:40:29;;;;;;;5.90;1.90;;;;;;;-0.72;100.00;99754.42;218882;1267;138766;-89
2023/02/26 00:45:30;;;;;;;6.90;2.00;;;;;;;-0.72;100.00;99761.98;219746;1271;104513;-89
2023/02/26 00:50:31;;;;;;;8.90;1.70;;;;;;;-0.71;100.00;99760.70;219013;1272;138603;-89
2023/02/26 00:55:32;;;;;;;6.10;1.80;;;;;;;-0.69;100.00;99771.28;219271;1271;139151;-88
2023/02/26 01:00:32;;;;;;;6.90;2.10;;;;;;;-0.67;100.00;99771.95;218884;1267;139656;-88
2023/02/26 01:05:33;;;;;;;4.70;1.60;;;;;;;-0.64;100.00;99769.75;219517;1268;138833;-89
2023/02/26 01:10:34;;;;;;;5.00;1.40;;;;;;;-0.61;100.00;99773.60;219472;1267;138791;-89
2023/02/26 01:15:35;;;;;;;3.30;1.30;;;;;;;-0.61;100.00;99779.30;219413;1269;98057;-89
2023/02/26 01:20:52;;;;;;;7.70;1.60;;;;;;;-0.63;100.00;99786.95;218878;1269;139430;-88
2023/02/26 01:25:57;;;;;;;4.90;1.50;;;;;;;-0.65;100.00;99786.77;219465;1267;138519;-88
2023/02/26 01:31:04;;;;;;;5.80;1.40;;;;;;;-0.68;100.00;99794.27;219184;1270;138988;-88
2023/02/26 01:36:15;;;;;;;4.20;1.50;;;;;;;-0.73;100.00;99795.51;218787;1268;139224;-88
2023/02/26 01:41:22;;;;;;;3.10;1.00;;;;;;;-0.79;100.00;99806.28;221024;1268;138259;-88
2023/02/26 01:46:22;;;;;;;;;;;;;;;-0.84;100.00;99810.38;220254;1269;139271;-88
2023/02/26 01:51:49;;;;;;;3.40;1.40;;;;;;;-0.89;100.00;99816.85;219503;1268;97963;-87
2023/02/26 01:56:56;;;;;;;;;;;;;;;-0.95;100.00;99825.52;218819;1270;139136;-87
2023/02/26 02:01:58;;;;;;;3.30;1.10;;;;;;;-1.03;100.00;99830.23;220019;1269;125735;-87
2023/02/26 02:06:59;;;;;;;4.70;1.50;;;;;;;-1.09;100.00;99838.29;218738;1271;139383;-87
2023/02/26 02:12:17;;;;;;;3.70;1.20;;;;;;;-1.13;100.00;99846.26;219389;1269;138618;-86
2023/02/26 02:17:38;;;;;;;4.30;1.10;;;;;;;-1.18;100.00;99855.52;218936;1271;139259;-86
2023/02/26 02:23:06;;;;;;;3.70;1.30;;;;;;;-1.24;100.00;99857.92;219414;1272;138707;-86
2023/02/26 02:28:34;;;;;;;5.50;1.40;;;;;;;-1.25;100.00;99865.54;218901;1267;139049;-86
2023/02/26 02:33:51;;;;;;;5.00;1.70;;;;;;;-1.27;100.00;99868.45;219532;1269;98304;-87
2023/02/26 02:38:58;;;;;;;6.20;1.60;;;;;;;-1.29;100.00;99875.14;218889;1271;138936;-85
2023/02/26 02:44:06;;;;;;;4.70;1.90;;;;;;;-1.31;100.00;99879.85;219381;1271;139088;-84
2023/02/26 02:49:16;;;;;;;6.10;1.30;;;;;;;-1.34;100.00;99890.42;218852;1268;139009;-85
2023/02/26 02:54:43;;;;;;;4.60;1.80;;;;;;;-1.38;100.00;99908.15;219565;1267;138737;-85
2023/02/26 02:59:52;;;;;;;6.30;1.90;;;;;;;-1.40;100.00;99925.23;218823;1269;139100;-85
2023/02/26 03:04:53;;;;;;;4.50;1.40;;;;;;;-1.43;100.00;99927.41;219459;1267;138596;-85
2023/02/26 03:09:54;;;;;;;3.40;1.00;;;;;;;-1.44;100.00;99933.14;219015;1267;140144;-84
2023/02/26 03:14:54;;;;;;;6.10;1.10;;;;;;;-1.44;100.00;99942.66;219464;1267;138519;-85
2023/02/26 03:20:08;;;;;;;6.20;1.20;;;;;;;-1.49;100.00;99945.85;218887;1267;138808;-84
2023/02/26 03:25:20;;;;;;;3.40;1.00;;;;;;;-1.48;100.00;99961.60;219404;1271;138795;-85
2023/02/26 03:30:24;;;;;;;2.70;1.00;;;;;;;-1.50;100.00;99972.17;218665;1271;138994;-84
2023/02/26 03:36:02;;;;;;;3.00;1.00;;;;;;;-1.52;100.00;99973.52;219414;1267;139929;-85
2023/02/26 03:41:09;;;;;;;4.60;1.20;;;;;;;-1.54;100.00;99983.48;218729;1267;139066;-85
2023/02/26 03:46:22;;;;;;;2.70;1.10;;;;;;;-1.56;100.00;99991.19;219319;1271;138865;-84
2023/02/26 03:51:26;;;;;;;5.80;1.40;;;;;;;-1.58;100.00;100008.33;219457;1267;98049;-84
2023/02/26 03:56:32;;;;;;;4.30;1.00;;;;;;;-1.60;100.00;100011.55;218784;1269;139055;-84
2023/02/26 04:02:04;;;;;;;3.90;1.50;;;;;;;-1.62;100.00;100013.31;219408;1268;140750;-84
2023/02/26 04:07:05;;;;;;;4.60;1.20;;;;;;;-1.62;100.00;100020.11;218930;1271;139507;-85
2023/02/26 04:12:05;;;;;;;3.60;0.90;;;;;;;-1.62;100.00;100026.92;219352;1268;139056;-85
2023/02/26 04:17:06;;;;;;;2.80;1.00;;;;;;;-1.62;100.00;100034.32;218719;1268;138958;-84
2023/02/26 04:22:06;;;;;;;4.20;1.10;;;;;;;-1.61;100.00;100042.71;219396;1271;98035;-85
2023/02/26 04:27:06;;;;;;;2.90;1.30;;;;;;;-1.61;100.00;100051.77;218932;1268;139075;-85
2023/02/26 04:32:07;;;;;;;3.70;1.20;;;;;;;-1.60;100.00;100051.91;219513;1268;139114;-84
2023/02/26 04:37:07;;;;;;;4.10;1.50;;;;;;;-1.60;100.00;100057.57;219080;1269;138834;-85
2023/02/26 04:42:08;;;;;;;4.40;1.50;;;;;;;-1.60;100.00;100064.36;219536;1270;139054;-84
2023/02/26 04:47:08;;;;;;;3.90;1.00;;;;;;;-1.58;100.00;100065.98;218874;1268;140247;-84
2023/02/26 04:52:09;;;;;;;4.70;1.60;;;;;;;-1.55;100.00;100076.08;219489;1269;98070;-83
2023/02/26 04:57:09;;;;;;;5.00;1.30;;;;;;;-1.52;100.00;100083.29;218800;1267;139415;-84
2023/02/26 05:02:09;;;;;;;4.00;1.20;;;;;;;-1.49;100.00;100089.55;219368;1268;139142;-83
2023/02/26 05:07:10;;;;;;;4.90;1.30;;;;;;;-1.43;100.00;100091.38;218702;1271;139199;-84
2023/02/26 05:12:10;;;;;;;6.20;1.50;;;;;;;-1.38;100.00;100100.66;219209;1271;200246;-84
2023/02/26 05:17:11;;;;;;;6.60;1.30;;;;;;;-1.33;100.00;100101.77;218921;1269;139473;-84
2023/02/26 05:22:11;;;;;;;4.60;1.10;;;;;;;-1.28;100.00;100109.91;219533;1267;98232;-83
2023/02/26 05:27:12;;;;;;;6.50;1.50;;;;;;;-1.23;100.00;100117.52;218824;1267;139000;-85
2023/02/26 05:32:12;;;;;;;4.90;1.20;;;;;;;-1.18;100.00;100118.30;219486;1268;139040;-84
2023/02/26 05:37:12;;;;;;;2.70;1.20;;;;;;;-1.11;100.00;100127.69;218640;1269;139719;-84
2023/02/26 05:42:13;;;;;;;6.00;1.20;;;;;;;-1.06;100.00;100134.70;219390;1268;139640;-82
2023/02/26 05:47:14;;;;;;;5.10;1.50;;;;;;;-1.00;100.00;100148.17;218960;1267;139493;-82
2023/02/26 05:52:14;;;;;;;8.10;1.60;;;;;;;-0.95;100.00;100159.27;219461;1268;97945;-82
2023/02/26 05:57:15;;;;;;;5.00;1.80;;;;;;;-0.89;100.00;100169.61;218891;1268;139345;-82
2023/02/26 06:02:15;;;;;;;4.50;1.30;;;;;;;-0.85;100.00;100176.02;219300;1271;138920;-81
2023/02/26 06:07:16;;;;;;;4.60;1.50;;;;;;;-0.79;100.00;100190.48;219047;1268;138883;-81
2023/02/26 06:12:16;;;;;;;4.70;1.50;;;;;;;-0.74;100.00;100197.54;219364;1269;138887;-82
2023/02/26 06:17:16;;;;;;;6.20;1.50;;;;;;;-0.69;100.00;100205.52;218961;1268;139915;-81
2023/02/26 06:22:17;;;;;;;8.10;2.00;;;;;;;-0.65;100.00;100214.48;219654;1269;98433;-83
2023/02/26 06:27:17;;;;;;;4.20;1.60;;;;;;;-0.56;100.00;100227.58;219079;1268;141305;-83
2023/02/26 06:32:18;;;;;;;5.40;2.10;;;;;;;-0.49;100.00;100231.94;219517;1268;138683;-83
2023/02/26 06:37:18;;;;;;;4.10;1.50;;;;;;;-0.42;100.00;100241.16;219088;1271;139761;-83
2023/02/26 06:42:18;;;;;;;4.80;1.60;;;;;;;-0.35;100.00;100250.22;219818;1268;139533;-83
2023/02/26 06:47:19;;;;;;;4.20;2.20;;;;;;;-0.29;100.00;100257.35;219096;1269;139509;-83
2023/02/26 06:52:19;;;;;;;4.00;1.80;;;;;;;-0.23;100.00;100262.23;219715;1268;98855;-83
2023/02/26 06:57:20;;;;;;;6.60;1.80;;;;;;;-0.15;100.00;100263.70;219298;1268;139403;-82
2023/02/26 07:02:21;;;;;;;6.80;1.60;;;;;;;-0.08;100.00;100272.70;219731;1271;139000;-83
2023/02/26 07:07:22;;;;;;;4.50;1.60;;;;;;;-0.02;100.00;100276.17;219312;1271;139534;-82
2023/02/26 07:12:22;;;;;;;7.70;1.40;;;;;;;0.03;100.00;100290.42;219748;1271;139584;-83
2023/02/26 07:17:23;;;;;;;8.30;1.60;;;;;;;0.08;100.00;100294.14;219100;1271;139791;-81
2023/02/26 07:22:24;;;;;;;9.10;1.70;;;;;;;0.12;100.00;100300.30;219688;1271;138750;-82
2023/02/26 07:27:24;;;;;;;6.40;1.50;;;;;;;0.18;100.00;100314.32;219118;1271;139233;-83
2023/02/26 07:32:25;;;;;;;4.40;1.70;;;;;;;0.23;100.00;100318.29;219638;1271;138253;-83
2023/02/26 07:37:25;;;;;;;7.00;1.70;;;;;;;0.33;100.00;100325.12;218985;1271;141040;-83
2023/02/26 07:42:25;;;;;;;9.90;1.60;;;;;;;0.45;100.00;100333.70;220012;1271;138535;-83
2023/02/26 07:47:26;;;;;;;8.90;1.70;;;;;;;0.58;100.00;100338.83;219416;1269;138972;-85
2023/02/26 07:52:27;;;;;;;7.60;1.50;;;;;;;0.71;100.00;100347.88;219669;1271;138521;-87
2023/02/26 07:57:28;;;;;;;7.30;1.60;;;;;;;0.84;100.00;100356.72;219270;1268;139431;-86
2023/02/26 08:02:28;;;;;;;11.00;2.40;;;;;;;0.90;100.00;100365.30;219765;1268;139282;-87
2023/02/26 08:07:28;;;;;;;7.10;2.00;;;;;;;0.99;100.00;100375.41;219228;1267;139254;-86
2023/02/26 08:12:31;;;;;;;5.10;1.90;;;;;;;1.07;100.00;100386.95;219843;1269;139907;-88
2023/02/26 08:17:32;;;;;;;11.60;4.00;;;;;;;1.16;100.00;100396.92;219563;1271;138959;-86
2023/02/26 08:22:33;;;;;;;6.80;1.60;;;;;;;1.23;100.00;100406.47;219973;1268;138615;-88
2023/02/26 08:27:41;;;;;;;10.00;1.90;;;;;;;1.26;100.00;100411.38;219199;1269;139271;-88
2023/02/26 08:32:42;;;;;;;9.60;3.60;;;;;;;1.30;100.00;100424.22;219660;1270;138575;-86
2023/02/26 08:37:42;;;;;;;4.90;1.40;;;;;;;1.36;100.00;100436.23;219582;1269;138626;-86
2023/02/26 08:42:43;;;;;;;19.40;7.00;;;;;;;1.42;100.00;100441.21;220016;1269;138865;-89
2023/02/26 08:47:44;;;;;;;28.20;13.20;;;;;;;1.52;100.00;100447.48;219415;1269;139002;-88
2023/02/26 08:52:45;;;;;;;8.50;2.30;;;;;;;1.62;100.00;100459.27;219674;1269;139153;-89
2023/02/26 08:57:45;;;;;;;7.30;2.70;;;;;;;1.65;100.00;100468.17;218945;1269;138661;-89
2023/02/26 09:02:45;;;;;;;7.20;2.20;;;;;;;1.67;100.00;100481.20;219494;1269;138309;-89
2023/02/26 09:07:46;;;;;;;12.00;3.30;;;;;;;1.75;100.00;100488.98;218985;1271;138995;-88
2023/02/26 09:12:46;;;;;;;11.10;2.50;;;;;;;1.95;100.00;100497.03;219514;1269;139616;-88
2023/02/26 09:17:47;;;;;;;12.90;3.20;;;;;;;2.10;100.00;100503.54;218953;1269;139259;-88
2023/02/26 09:22:47;;;;;;;8.20;1.60;;;;;;;2.28;100.00;100512.02;219352;1268;139064;-89
2023/02/26 09:27:54;;;;;;;6.80;2.00;;;;;;;2.62;100.00;100519.31;219155;1268;138571;-86
2023/02/26 09:32:54;;;;;;;6.50;1.60;;;;;;;3.18;100.00;100523.64;219833;1271;138305;-90
2023/02/26 09:37:55;;;;;;;6.10;1.70;;;;;;;3.56;100.00;100533.79;218791;1269;138644;-91
2023/02/26 09:43:13;;;;;;;8.00;1.80;;;;;;;4.02;99.78;100543.97;219654;1271;138474;-85
2023/02/26 09:48:18;;;;;;;11.30;1.60;;;;;;;4.41;99.76;100556.09;218540;1269;138597;-89
2023/02/26 09:53:40;;;;;;;8.80;1.60;;;;;;;4.54;98.53;100567.16;219392;1269;138427;-91
2023/02/26 09:58:42;;;;;;;6.60;1.90;;;;;;;4.99;99.32;100574.29;218914;1269;138371;-90
2023/02/26 10:04:00;;;;;;;12.00;1.90;;;;;;;5.30;97.57;100582.69;219577;1268;97972;-90
2023/02/26 10:09:01;;;;;;;7.00;1.50;;;;;;;5.24;93.85;100588.75;219005;1269;139383;-91
2023/02/26 10:14:06;;;;;;;8.20;2.10;;;;;;;5.17;94.11;100594.71;219479;1271;138100;-89
2023/02/26 10:19:13;;;;;;;4.80;1.60;;;;;;;5.17;92.72;100605.94;218846;1268;138312;-89
2023/02/26 10:24:19;;;;;;;4.60;1.40;;;;;;;5.03;91.24;100607.23;219541;1270;138281;-88
2023/02/26 10:29:31;;;;;;;4.90;1.30;;;;;;;4.90;90.09;100614.77;218765;1269;138271;-91
2023/02/26 10:34:45;;;;;;;6.20;1.50;;;;;;;4.78;89.93;100620.67;219322;1270;137771;-85
2023/02/26 10:39:55;;;;;;;5.30;1.40;;;;;;;4.71;87.84;100635.35;219346;1269;138610;-89
2023/02/26 10:45:09;;;;;;;9.90;2.40;;;;;;;4.44;88.12;100639.66;219524;1269;138075;-90
2023/02/26 10:50:13;;;;;;;10.80;2.10;;;;;;;4.44;89.32;100646.21;218787;1269;138819;-90
2023/02/26 10:55:46;;;;;;;7.40;1.40;;;;;;;4.43;88.93;100657.02;220145;1269;138766;-89
2023/02/26 11:00:52;;;;;;;7.30;1.20;;;;;;;4.33;87.35;100658.62;218511;1271;138286;-90
2023/02/26 11:05:53;;;;;;;3.20;1.10;;;;;;;4.16;86.32;100661.54;219581;1268;138539;-87
2023/02/26 11:10:56;;;;;;;4.80;1.20;;;;;;;4.22;86.39;100656.95;219898;1271;138290;-89
2023/02/26 11:16:01;;;;;;;6.30;1.40;;;;;;;4.55;87.19;100657.86;218732;1268;139277;-89
2023/02/26 11:21:04;;;;;;;4.80;1.30;;;;;;;4.76;86.92;100659.47;219127;1271;138832;-90
2023/02/26 11:26:08;;;;;;;9.10;2.00;;;;;;;4.81;86.00;100670.09;218827;1271;139523;-88
2023/02/26 11:31:11;;;;;;;10.70;2.30;;;;;;;4.77;86.10;100680.52;219814;1269;138863;-90
2023/02/26 11:36:14;;;;;;;7.00;1.50;;;;;;;4.73;85.95;100690.35;218719;1271;138820;-90
2023/02/26 11:41:15;;;;;;;6.40;1.90;;;;;;;4.60;84.52;100694.67;219279;1269;139233;-90
2023/02/26 11:46:16;;;;;;;6.10;1.60;;;;;;;4.56;86.26;100694.67;219104;1269;138256;-90
2023/02/26 11:51:34;;;;;;;6.80;1.60;;;;;;;4.56;85.64;100693.42;219435;1268;138850;-90
2023/02/26 11:56:43;;;;;;;6.00;1.80;;;;;;;4.60;85.79;100705.00;218693;1269;138320;-89
2023/02/26 12:01:43;;;;;;;8.20;1.50;;;;;;;4.55;84.24;100708.42;219193;1271;139019;-89
2023/02/26 12:06:47;;;;;;;6.40;1.30;;;;;;;4.47;84.61;100714.38;218686;1269;138852;-87
2023/02/26 12:11:54;;;;;;;4.50;1.30;;;;;;;4.41;83.93;100717.66;219260;1271;138952;-87
2023/02/26 12:16:58;;;;;;;;;;;;;;;4.42;84.12;100725.85;218909;1271;138954;-88
2023/02/26 12:22:16;;;;;;;6.50;1.40;;;;;;;4.43;83.61;100726.07;220075;1269;97936;-89
2023/02/26 12:27:30;;;;;;;7.30;2.20;;;;;;;4.40;83.62;100739.42;218845;1268;138979;-88
2023/02/26 12:33:02;;;;;;;6.00;1.30;;;;;;;4.30;82.68;100740.80;219227;1271;138242;-90
2023/02/26 12:38:24;;;;;;;7.60;1.60;;;;;;;4.29;82.54;100741.42;218726;1272;139686;-90
2023/02/26 12:43:34;;;;;;;7.60;2.30;;;;;;;4.37;83.74;100747.69;219407;1269;138476;-89
2023/02/26 12:48:55;;;;;;;3.80;1.50;;;;;;;4.46;83.00;100749.39;218828;1269;139178;-88
2023/02/26 12:53:55;;;;;;;5.70;1.40;;;;;;;4.59;83.49;100755.68;219697;1271;138556;-89
2023/02/26 12:59:05;;;;;;;5.00;1.10;;;;;;;4.74;82.77;100760.85;218879;1271;139112;-90
2023/02/26 13:04:24;;;;;;;7.10;1.80;;;;;;;4.76;81.51;100766.03;219311;1271;97963;-89
2023/02/26 13:09:49;;;;;;;6.20;1.90;;;;;;;4.65;80.52;100779.34;218795;1271;138439;-89
2023/02/26 13:15:29;;;;;;;6.90;1.80;;;;;;;4.53;80.50;100783.00;219876;1271;138860;-89
2023/02/26 13:20:32;;;;;;;7.00;1.80;;;;;;;4.42;79.85;100787.98;218702;1269;138793;-89
2023/02/26 13:26:00;;;;;;;7.40;2.50;;;;;;;4.34;79.30;100786.48;219846;1270;138982;-87
2023/02/26 13:31:01;;;;;;;12.70;3.50;;;;;;;4.16;78.66;100788.21;219410;1270;138296;-89
2023/02/26 13:36:05;;;;;;;5.50;1.50;;;;;;;4.13;80.24;100787.96;219230;1269;139413;-88
2023/02/26 13:41:24;;;;;;;4.70;1.10;;;;;;;4.20;79.05;100786.91;219407;1271;138913;-88
2023/02/26 13:46:39;;;;;;;6.10;1.20;;;;;;;4.31;78.20;100798.60;219327;1267;139024;-89
2023/02/26 13:51:43;;;;;;;4.90;1.80;;;;;;;4.35;78.74;100809.91;219737;1271;107740;-90
2023/02/26 13:56:53;;;;;;;4.20;1.20;;;;;;;4.25;77.24;100812.59;219038;1271;139148;-88
2023/02/26 14:02:02;;;;;;;6.70;2.20;;;;;;;4.14;77.22;100817.12;219677;1271;138288;-88
2023/02/26 14:07:15;;;;;;;9.00;2.30;;;;;;;4.06;76.40;100822.80;219536;1269;139424;-88
2023/02/26 14:12:15;;;;;;;17.10;7.40;;;;;;;3.99;74.79;100830.77;219767;1271;138589;-89
2023/02/26 14:17:17;;;;;;;7.20;2.10;;;;;;;3.92;75.71;100828.73;219136;1271;139329;-89
2023/02/26 14:22:30;;;;;;;7.30;1.30;;;;;;;3.99;75.43;100838.02;219605;1271;99294;-85
2023/02/26 14:27:36;;;;;;;5.20;1.70;;;;;;;4.05;75.74;100843.41;218951;1271;138243;-88
2023/02/26 14:32:56;;;;;;;;;;;;;;;4.03;75.38;100846.80;221360;1271;138260;-90
2023/02/26 14:38:20;;;;;;;66.70;40.20;;;;;;;4.00;75.37;100853.04;219404;1271;125266;-90
2023/02/26 14:43:40;;;;;;;68.90;32.30;;;;;;;3.92;75.24;100858.23;219707;1270;138649;-90
2023/02/26 14:48:41;;;;;;;7.40;2.80;;;;;;;3.82;75.14;100862.69;219045;1269;139772;-89
2023/02/26 14:53:47;;;;;;;12.00;4.00;;;;;;;3.71;74.47;100867.54;219544;1269;138353;-90
2023/02/26 14:59:09;;;;;;;55.90;22.50;;;;;;;3.63;74.59;100870.84;219938;1269;138648;-90
2023/02/26 15:04:37;;;;;;;41.40;16.20;;;;;;;3.51;74.17;100880.61;219814;1272;106135;-89
2023/02/26 15:10:17;;;;;;;10.50;3.70;;;;;;;3.43;73.96;100884.94;219109;1271;138894;-89
2023/02/26 15:15:35;;;;;;;9.70;3.20;;;;;;;3.40;73.70;100887.28;219958;1272;139154;-90
2023/02/26 15:20:57;;;;;;;7.70;3.00;;;;;;;3.36;74.40;100895.02;218963;1271;138208;-89
2023/02/26 15:25:58;;;;;;;5.60;2.00;;;;;;;3.28;73.64;100898.59;219356;1273;139413;-90
2023/02/26 15:31:00;;;;;;;7.60;2.70;;;;;;;3.19;74.27;100901.56;219825;1272;138355;-89
2023/02/26 15:36:05;;;;;;;5.60;1.90;;;;;;;3.10;73.80;100906.19;219234;1272;139125;-88
2023/02/26 15:41:06;;;;;;;6.40;2.30;;;;;;;3.03;74.11;100914.61;220028;1272;138260;-88
2023/02/26 15:46:08;;;;;;;5.70;1.90;;;;;;;2.96;75.39;100914.84;219432;1272;138982;-87
2023/02/26 15:51:13;;;;;;;8.90;3.20;;;;;;;2.93;75.96;100918.41;219993;1269;138177;-86
2023/02/26 15:56:23;;;;;;;12.90;5.80;;;;;;;2.89;77.06;100921.25;218987;1272;138393;-86
2023/02/26 16:01:25;;;;;;;12.20;5.20;;;;;;;2.87;77.56;100927.39;219579;1269;139619;-86
2023/02/26 16:06:47;;;;;;;8.50;3.60;;;;;;;2.82;77.49;100933.17;219175;1269;138881;-87
2023/02/26 16:11:48;;;;;;;11.50;3.40;;;;;;;2.71;77.78;100940.21;220955;1270;137159;-88
2023/02/26 16:16:52;;;;;;;11.20;3.20;;;;;;;2.60;79.12;100946.84;219951;1270;138579;-90
2023/02/26 16:21:54;;;;;;;19.80;8.40;;;;;;;2.50;79.43;100956.12;219951;1267;97947;-88
2023/02/26 16:27:00;;;;;;;10.40;3.80;;;;;;;2.37;80.24;100965.40;219213;1272;139200;-87
2023/02/26 16:32:03;;;;;;;7.50;1.80;;;;;;;2.28;80.46;100973.66;219937;1269;138355;-88
2023/02/26 16:37:28;;;;;;;8.50;2.80;;;;;;;2.17;80.86;100982.63;219288;1271;139408;-88
2023/02/26 16:42:42;;;;;;;13.30;5.60;;;;;;;2.07;81.41;100993.60;219924;1270;138541;-87
2023/02/26 16:47:50;;;;;;;12.40;3.80;;;;;;;2.01;82.14;100996.45;218867;1272;138405;-87
2023/02/26 16:52:58;;;;;;;13.10;5.30;;;;;;;1.94;82.45;101010.73;219526;1273;139305;-88
2023/02/26 16:58:04;;;;;;;11.60;5.40;;;;;;;1.88;82.90;101014.02;219022;1273;138791;-86
2023/02/26 17:03:09;;;;;;;10.90;3.50;;;;;;;1.82;83.07;101022.52;219497;1271;138264;-87
2023/02/26 17:08:15;;;;;;;13.40;5.50;;;;;;;1.73;83.33;101026.98;218879;1267;138929;-87
2023/02/26 17:13:17;;;;;;;31.00;7.10;;;;;;;1.64;83.96;101032.45;219269;1268;269956;-87
2023/02/26 17:18:18;;;;;;;23.60;8.80;;;;;;;1.56;84.19;101040.86;218982;1270;139231;-86
2023/02/26 17:23:21;;;;;;;17.40;7.20;;;;;;;1.45;84.13;101052.21;219452;1270;138464;-86
2023/02/26 17:28:26;;;;;;;21.90;6.80;;;;;;;1.33;84.19;101057.11;218901;1267;138732;-85
2023/02/26 17:33:27;;;;;;;31.50;13.00;;;;;;;1.21;84.52;101062.54;219872;1272;138424;-86
2023/02/26 17:38:28;;;;;;;17.60;7.50;;;;;;;1.07;84.64;101068.45;218963;1272;138883;-85
2023/02/26 17:43:28;;;;;;;17.90;6.30;;;;;;;0.94;85.06;101077.67;219491;1272;139072;-86
2023/02/26 17:48:29;;;;;;;22.90;8.70;;;;;;;0.85;85.79;101081.89;218872;1270;139056;-89
2023/02/26 17:53:39;;;;;;;19.20;8.10;;;;;;;0.75;86.04;101086.83;219525;1273;138537;-86
2023/02/26 17:58:40;;;;;;;19.40;7.30;;;;;;;0.68;86.42;101090.30;219038;1270;138714;-87
2023/02/26 18:03:42;;;;;;;24.40;8.00;;;;;;;0.62;86.64;101092.83;219845;1271;97981;-88
2023/02/26 18:08:43;;;;;;;16.60;6.30;;;;;;;0.56;87.22;101092.66;218983;1269;139114;-87
2023/02/26 18:13:44;;;;;;;19.20;6.30;;;;;;;0.50;87.70;101095.35;219546;1273;138712;-88
2023/02/26 18:18:44;;;;;;;15.90;6.00;;;;;;;0.47;88.36;101096.38;219043;1270;138946;-87
2023/02/26 18:23:46;;;;;;;13.00;5.10;;;;;;;0.46;88.42;101098.13;219815;1270;139165;-88
2023/02/26 18:28:46;;;;;;;14.20;6.30;;;;;;;0.45;88.51;101102.05;219018;1270;139315;-89
2023/02/26 18:33:47;;;;;;;12.90;5.40;;;;;;;0.44;88.40;101107.20;219587;1269;98039;-89
2023/02/26 18:38:47;;;;;;;15.60;5.50;;;;;;;0.43;88.15;101107.42;218914;1269;139095;-91
2023/02/26 18:43:47;;;;;;;19.30;5.80;;;;;;;0.45;88.10;101115.52;219459;1270;138660;-88
2023/02/26 18:48:48;;;;;;;20.70;6.60;;;;;;;0.47;87.95;101122.64;218778;1271;139241;-91
2023/02/26 18:53:48;;;;;;;23.40;7.70;;;;;;;0.51;88.00;101122.69;219312;1271;139194;-88
2023/02/26 18:58:49;;;;;;;19.00;6.10;;;;;;;0.54;88.03;101133.21;218798;1271;139316;-89
2023/02/26 19:03:49;;;;;;;14.20;4.40;;;;;;;0.57;87.80;101145.89;219342;1270;98433;-89
2023/02/26 19:08:50;;;;;;;18.10;5.50;;;;;;;0.59;87.93;101151.71;218641;1269;138975;-87
2023/02/26 19:13:50;;;;;;;15.10;4.50;;;;;;;0.61;87.97;101150.71;220237;1271;138697;-88
2023/02/26 19:18:51;;;;;;;16.00;5.90;;;;;;;0.63;87.67;101154.27;220635;1269;139118;-89
2023/02/26 19:23:51;;;;;;;17.60;5.10;;;;;;;0.65;87.50;101166.69;219949;1267;138584;-88
2023/02/26 19:28:51;;;;;;;20.80;8.00;;;;;;;0.66;87.70;101167.38;218927;1271;139089;-89
2023/02/26 19:33:52;;;;;;;12.60;3.80;;;;;;;0.65;87.73;101172.11;219524;1268;98493;-88
2023/02/26 19:38:53;;;;;;;14.70;4.50;;;;;;;0.66;87.23;101179.94;218895;1271;138556;-88
2023/02/26 19:43:53;;;;;;;20.60;7.30;;;;;;;0.64;86.88;101182.51;219270;1273;138643;-87
2023/02/26 19:48:54;;;;;;;11.70;4.40;;;;;;;0.64;86.29;101185.50;218668;1267;138763;-88
2023/02/26 19:53:54;;;;;;;15.10;4.70;;;;;;;0.63;86.36;101194.88;219279;1271;139034;-88
2023/02/26 19:58:55;;;;;;;9.30;3.20;;;;;;;0.63;85.96;101206.80;218542;1268;138931;-89
2023/02/26 20:03:56;;;;;;;12.50;3.90;;;;;;;0.60;85.83;101208.73;219911;1271;97980;-90
2023/02/26 20:08:56;;;;;;;16.00;4.50;;;;;;;0.60;85.88;101217.58;219069;1269;139474;-90
2023/02/26 20:13:57;;;;;;;11.50;3.70;;;;;;;0.56;85.51;101220.92;219417;1269;139174;-89
2023/02/26 20:18:58;;;;;;;8.50;2.60;;;;;;;0.52;85.91;101225.36;218777;1267;139203;-90
2023/02/26 20:23:59;;;;;;;10.20;2.60;;;;;;;0.48;85.40;101231.70;219406;1269;138309;-90
2023/02/26 20:28:59;;;;;;;16.40;4.20;;;;;;;0.43;85.54;101240.98;218765;1268;138855;-90
2023/02/26 20:34:00;;;;;;;14.70;4.40;;;;;;;0.39;85.65;101244.48;219297;1267;99098;-89
2023/02/26 20:39:01;;;;;;;10.50;2.70;;;;;;;0.37;85.75;101251.23;218908;1267;140682;-88
2023/02/26 20:44:02;;;;;;;12.50;3.00;;;;;;;0.35;86.01;101261.77;219495;1267;138322;-89
2023/02/26 20:49:02;;;;;;;13.50;4.10;;;;;;;0.33;86.18;101260.27;218827;1267;138705;-90
2023/02/26 20:54:02;;;;;;;8.90;3.50;;;;;;;0.33;86.15;101263.58;219630;1268;138539;-92
2023/02/26 20:59:03;;;;;;;8.10;2.60;;;;;;;0.32;86.11;101271.65;221696;1267;138716;-90
2023/02/26 21:04:06;;;;;;;8.90;3.20;;;;;;;0.31;86.33;101275.17;219890;1270;97834;-89
2023/02/26 21:09:09;;;;;;;14.00;4.20;;;;;;;0.31;86.02;101274.54;218603;1267;138778;-88
2023/02/26 21:14:10;;;;;;;9.10;3.10;;;;;;;0.31;86.32;101279.19;219264;1268;138276;-89
2023/02/26 21:19:10;;;;;;;7.20;2.50;;;;;;;0.32;86.43;101282.59;218798;1267;138925;-88
2023/02/26 21:24:11;;;;;;;12.10;4.40;;;;;;;0.35;86.59;101285.11;219064;1267;138807;-88
2023/02/26 21:29:11;;;;;;;8.10;2.80;;;;;;;0.34;86.72;101289.02;218654;1268;138757;-89
2023/02/26 21:34:12;;;;;;;13.50;3.30;;;;;;;0.34;86.99;101295.13;219236;1269;97966;-88
2023/02/26 21:39:12;;;;;;;10.70;3.30;;;;;;;0.34;87.17;101299.14;218852;1267;138838;-88
2023/02/26 21:44:13;;;;;;;8.40;3.00;;;;;;;0.34;87.24;101302.33;219448;1271;139433;-88
2023/02/26 21:49:13;;;;;;;10.40;3.60;;;;;;;0.35;87.30;101306.43;219106;1271;139264;-90
2023/02/26 21:54:13;;;;;;;9.20;3.10;;;;;;;0.36;87.17;101307.23;219561;1269;138693;-94
2023/02/26 21:59:15;;;;;;;10.40;3.30;;;;;;;0.36;87.27;101311.62;220020;1269;138499;-94
2023/02/26 22:04:18;;;;;;;12.60;4.20;;;;;;;0.35;87.34;101308.55;220921;1269;97946;-94
2023/02/26 22:09:20;;;;;;;10.50;3.50;;;;;;;0.36;87.52;101311.90;220172;1271;138170;-94
2023/02/26 22:14:21;;;;;;;9.40;3.00;;;;;;;0.36;87.47;101311.14;220280;1267;138282;-93
2023/02/26 22:19:22;;;;;;;9.10;3.30;;;;;;;0.37;87.66;101315.90;220634;1268;138276;-93
2023/02/26 22:29:46;;;;;;;8.80;2.60;;;;;;;0.36;88.00;101333.13;220164;1269;138910;-84
2023/02/26 22:34:47;;;;;;;10.50;3.30;;;;;;;0.37;87.82;101339.66;220637;1269;138541;-84
2023/02/26 22:39:47;;;;;;;11.40;3.80;;;;;;;0.37;87.95;101340.59;220767;1269;138918;-85
2023/02/26 22:44:47;;;;;;;14.10;4.40;;;;;;;0.35;88.22;101348.51;220876;1268;138673;-84
2023/02/26 22:49:48;;;;;;;16.60;5.60;;;;;;;0.34;88.33;101354.16;220059;1268;138921;-85
2023/02/26 22:54:48;;;;;;;20.10;5.90;;;;;;;0.32;88.98;101355.86;221081;1267;137776;-87
2023/02/26 22:59:49;;;;;;;14.90;6.00;;;;;;;0.27;88.84;101356.08;220068;1267;138485;-87
2023/02/26 23:04:50;;;;;;;19.20;5.20;;;;;;;0.19;88.50;101363.67;220508;1268;138503;-88
2023/02/26 23:09:50;;;;;;;18.20;6.50;;;;;;;0.09;88.58;101362.80;220144;1267;139622;-87
2023/02/26 23:14:51;;;;;;;15.00;5.70;;;;;;;-0.00;88.85;101365.32;220528;1269;138396;-87